Time,TemperatureF,DewpointF,PressureIn,WindDirection,WindDirectionDegrees,WindSpeedMPH,WindSpeedGustMPH,Humidity,HourlyPrecipIn,Conditions,Clouds,dailyrainin,SoftwareType,DateUTC
2013-03-09 00:01:00,34.1,23.2,30.19,WNW,292,2.0,4.0,64,0.00,,,0.00,Wunderground v.1.15,2013-03-09 05:01:00,
2013-03-09 00:02:00,34.1,23.2,30.19,East,87,1.0,4.0,64,0.00,,,0.00,Wunderground v.1.15,2013-03-09 05:02:00,
2013-03-09 00:05:00,34.0,23.1,30.19,ENE,66,1.0,4.0,64,0.00,,,0.00,Wunderground v.1.15,2013-03-09 05:05:00,
2013-03-09 00:09:00,33.6,23.1,30.19,NE,35,1.0,1.0,65,0.00,,,0.00,Wunderground v.1.15,2013-03-09 05:09:00,
2013-03-09 00:15:00,33.3,23.2,30.19,NE,46,1.0,4.0,66,0.00,,,0.00,Wunderground v.1.15,2013-03-09 05:15:00,
2013-03-09 00:21:00,33.2,23.1,30.19,NE,34,1.0,3.0,66,0.00,,,0.00,Wunderground v.1.15,2013-03-09 05:21:00,
2013-03-09 00:27:00,33.4,22.9,30.18,ENE,58,2.0,3.0,65,0.00,,,0.00,Wunderground v.1.15,2013-03-09 05:27:00,
2013-03-09 00:33:00,33.1,23.0,30.19,NNE,30,1.0,2.0,66,0.00,,,0.00,Wunderground v.1.15,2013-03-09 05:33:00,
2013-03-09 00:39:00,33.2,23.1,30.19,NE,35,1.0,4.0,66,0.00,,,0.00,Wunderground v.1.15,2013-03-09 05:39:00,
2013-03-09 00:45:00,33.5,23.0,30.19,NNE,30,2.0,3.0,65,0.00,,,0.00,Wunderground v.1.15,2013-03-09 05:45:00,
2013-03-09 00:50:00,33.3,23.2,30.19,North,357,2.0,3.0,66,0.00,,,0.00,Wunderground v.1.15,2013-03-09 05:50:00,
2013-03-09 00:56:00,33.3,23.2,30.19,East,92,2.0,3.0,66,0.00,,,0.00,Wunderground v.1.15,2013-03-09 05:56:00,
2013-03-09 01:02:00,33.1,23.0,30.19,NE,42,1.0,7.0,66,0.00,,,0.00,Wunderground v.1.15,2013-03-09 06:02:00,
2013-03-09 01:08:00,33.1,23.0,30.19,NE,34,2.0,7.0,66,0.00,,,0.00,Wunderground v.1.15,2013-03-09 06:08:00,
2013-03-09 01:14:00,33.1,23.0,30.19,North,4,2.0,2.0,66,0.00,,,0.00,Wunderground v.1.15,2013-03-09 06:14:00,
2013-03-09 01:20:00,33.1,22.6,30.19,NE,37,1.0,1.0,65,0.00,,,0.00,Wunderground v.1.15,2013-03-09 06:20:00,
2013-03-09 01:26:00,32.8,22.7,30.19,NNE,24,1.0,2.0,66,0.00,,,0.00,Wunderground v.1.15,2013-03-09 06:26:00,
2013-03-09 01:31:00,32.7,22.6,30.19,ENE,70,2.0,2.0,66,0.00,,,0.00,Wunderground v.1.15,2013-03-09 06:31:00,
2013-03-09 01:37:00,32.7,22.6,30.19,ENE,61,2.0,2.0,66,0.00,,,0.00,Wunderground v.1.15,2013-03-09 06:37:00,
2013-03-09 01:43:00,32.7,22.6,30.19,ENE,62,2.0,3.0,66,0.00,,,0.00,Wunderground v.1.15,2013-03-09 06:43:00,
2013-03-09 01:49:00,32.9,22.8,30.18,NE,35,2.0,6.0,66,0.00,,,0.00,Wunderground v.1.15,2013-03-09 06:49:00,
2013-03-09 01:55:00,32.8,22.3,30.18,NNE,16,2.0,4.0,65,0.00,,,0.00,Wunderground v.1.15,2013-03-09 06:55:00,
2013-03-09 02:01:00,32.6,22.1,30.18,NNE,33,2.0,3.0,65,0.00,,,0.00,Wunderground v.1.15,2013-03-09 07:01:00,
2013-03-09 02:07:00,32.3,22.2,30.18,ENE,68,1.0,6.0,66,0.00,,,0.00,Wunderground v.1.15,2013-03-09 07:07:00,
2013-03-09 02:13:00,32.1,22.4,30.18,SSW,203,1.0,3.0,67,0.00,,,0.00,Wunderground v.1.15,2013-03-09 07:13:00,
2013-03-09 02:18:00,31.7,22.3,30.18,NNE,26,1.0,3.0,68,0.00,,,0.00,Wunderground v.1.15,2013-03-09 07:18:00,
2013-03-09 02:24:00,31.0,22.4,30.18,ENE,65,1.0,1.0,70,0.00,,,0.00,Wunderground v.1.15,2013-03-09 07:24:00,
2013-03-09 02:30:00,31.0,22.0,30.18,SSW,206,0.0,2.0,69,0.00,,,0.00,Wunderground v.1.15,2013-03-09 07:30:00,
2013-03-09 02:36:00,31.5,22.1,30.18,ENE,71,1.0,2.0,68,0.00,,,0.00,Wunderground v.1.15,2013-03-09 07:36:00,
2013-03-09 02:42:00,31.3,22.0,30.18,North,6,1.0,3.0,68,0.00,,,0.00,Wunderground v.1.15,2013-03-09 07:42:00,
2013-03-09 02:48:00,31.0,22.0,30.18,SE,146,1.0,3.0,69,0.00,,,0.00,Wunderground v.1.15,2013-03-09 07:48:00,
2013-03-09 02:54:00,30.8,22.2,30.18,SE,134,1.0,4.0,70,0.00,,,0.00,Wunderground v.1.15,2013-03-09 07:54:00,
2013-03-09 03:00:00,31.0,22.4,30.18,ENE,71,2.0,2.0,70,0.00,,,0.00,Wunderground v.1.15,2013-03-09 08:00:00,
2013-03-09 03:05:00,30.5,22.2,30.17,NE,53,2.0,4.0,71,0.00,,,0.00,Wunderground v.1.15,2013-03-09 08:05:00,
2013-03-09 03:10:00,30.3,22.0,30.17,NW,310,1.0,1.0,71,0.00,,,0.00,Wunderground v.1.15,2013-03-09 08:10:00,
2013-03-09 03:16:00,30.2,21.9,30.17,ENE,58,1.0,2.0,71,0.00,,,0.00,Wunderground v.1.15,2013-03-09 08:16:00,
2013-03-09 03:22:00,30.1,21.8,30.17,NE,50,1.0,1.0,71,0.00,,,0.00,Wunderground v.1.15,2013-03-09 08:22:00,
2013-03-09 03:28:00,30.0,22.1,30.17,ENE,61,1.0,2.0,72,0.00,,,0.00,Wunderground v.1.15,2013-03-09 08:28:00,
2013-03-09 03:34:00,30.3,22.0,30.17,ESE,118,1.0,3.0,71,0.00,,,0.00,Wunderground v.1.15,2013-03-09 08:34:00,
2013-03-09 03:39:00,30.4,22.1,30.18,SE,144,1.0,1.0,71,0.00,,,0.00,Wunderground v.1.15,2013-03-09 08:39:00,
2013-03-09 03:45:00,30.2,21.9,30.18,ENE,62,1.0,2.0,71,0.00,,,0.00,Wunderground v.1.15,2013-03-09 08:45:00,
2013-03-09 03:51:00,30.0,22.1,30.18,ENE,67,1.0,1.0,72,0.00,,,0.00,Wunderground v.1.15,2013-03-09 08:51:00,
2013-03-09 03:57:00,29.9,22.0,30.18,NNE,33,1.0,1.0,72,0.00,,,0.00,Wunderground v.1.15,2013-03-09 08:57:00,
2013-03-09 04:03:00,29.9,22.0,30.18,ENE,67,1.0,8.0,72,0.00,,,0.00,Wunderground v.1.15,2013-03-09 09:03:00,
2013-03-09 04:09:00,29.8,21.9,30.18,East,97,1.0,8.0,72,0.00,,,0.00,Wunderground v.1.15,2013-03-09 09:09:00,
2013-03-09 04:15:00,29.8,21.9,30.19,NE,40,1.0,3.0,72,0.00,,,0.00,Wunderground v.1.15,2013-03-09 09:15:00,
2013-03-09 04:21:00,29.7,21.8,30.18,ENE,60,1.0,3.0,72,0.00,,,0.00,Wunderground v.1.15,2013-03-09 09:21:00,
2013-03-09 04:27:00,29.5,21.6,30.19,East,86,1.0,3.0,72,0.00,,,0.00,Wunderground v.1.15,2013-03-09 09:27:00,
2013-03-09 04:33:00,29.6,22.0,30.19,East,80,1.0,3.0,73,0.00,,,0.00,Wunderground v.1.15,2013-03-09 09:33:00,
2013-03-09 04:39:00,29.5,21.6,30.20,NE,51,1.0,3.0,72,0.00,,,0.00,Wunderground v.1.15,2013-03-09 09:39:00,
2013-03-09 04:44:00,29.0,21.4,30.20,East,84,0.0,1.0,73,0.00,,,0.00,Wunderground v.1.15,2013-03-09 09:44:00,
2013-03-09 04:50:00,28.9,21.7,30.20,NE,56,0.0,0.0,74,0.00,,,0.00,Wunderground v.1.15,2013-03-09 09:50:00,
2013-03-09 04:56:00,29.0,21.7,30.20,ESE,118,0.0,4.0,74,0.00,,,0.00,Wunderground v.1.15,2013-03-09 09:56:00,
2013-03-09 05:02:00,29.1,21.8,30.21,East,88,1.0,3.0,74,0.00,,,0.00,Wunderground v.1.15,2013-03-09 10:02:00,
2013-03-09 05:08:00,29.4,21.8,30.21,NE,54,1.0,3.0,73,0.00,,,0.00,Wunderground v.1.15,2013-03-09 10:08:00,
2013-03-09 05:14:00,29.5,21.6,30.21,NE,47,1.0,2.0,72,0.00,,,0.00,Wunderground v.1.15,2013-03-09 10:14:00,
2013-03-09 05:20:00,28.7,21.8,30.22,NE,56,0.0,0.0,75,0.00,,,0.00,Wunderground v.1.15,2013-03-09 10:20:00,
2013-03-09 05:26:00,27.7,21.7,30.22,South,189,0.0,1.0,78,0.00,,,0.00,Wunderground v.1.15,2013-03-09 10:26:00,
2013-03-09 05:32:00,27.2,21.5,30.22,NE,47,0.0,1.0,79,0.00,,,0.00,Wunderground v.1.15,2013-03-09 10:32:00,
2013-03-09 05:37:00,27.7,21.4,30.22,SE,124,0.0,1.0,77,0.00,,,0.00,Wunderground v.1.15,2013-03-09 10:37:00,
2013-03-09 05:43:00,28.3,21.4,30.22,ESE,102,0.0,1.0,75,0.00,,,0.00,Wunderground v.1.15,2013-03-09 10:43:00,
2013-03-09 05:49:00,29.0,21.7,30.22,ENE,58,1.0,3.0,74,0.00,,,0.00,Wunderground v.1.15,2013-03-09 10:49:00,
2013-03-09 05:55:00,29.3,21.7,30.22,East,91,1.0,4.0,73,0.00,,,0.00,Wunderground v.1.15,2013-03-09 10:55:00,
2013-03-09 06:01:00,29.2,21.6,30.22,North,352,1.0,3.0,73,0.00,,,0.00,Wunderground v.1.15,2013-03-09 11:01:00,
2013-03-09 06:07:00,28.9,21.3,30.23,NE,38,1.0,3.0,73,0.00,,,0.00,Wunderground v.1.15,2013-03-09 11:07:00,
2013-03-09 06:13:00,28.7,21.5,30.23,SW,219,1.0,1.0,74,0.00,,,0.00,Wunderground v.1.15,2013-03-09 11:13:00,
2013-03-09 06:18:00,28.5,21.3,30.23,East,82,1.0,2.0,74,0.00,,,0.00,Wunderground v.1.15,2013-03-09 11:18:00,
2013-03-09 06:24:00,28.7,21.5,30.23,ENE,61,1.0,2.0,74,0.00,,,0.00,Wunderground v.1.15,2013-03-09 11:24:00,
2013-03-09 06:30:00,28.2,21.3,30.23,ENE,57,0.0,0.0,75,0.00,,,0.00,Wunderground v.1.15,2013-03-09 11:30:00,
2013-03-09 06:36:00,27.6,21.0,30.23,East,98,0.0,1.0,76,0.00,,,0.00,Wunderground v.1.15,2013-03-09 11:36:00,
2013-03-09 06:42:00,27.6,21.3,30.23,East,90,0.0,1.0,77,0.00,,,0.00,Wunderground v.1.15,2013-03-09 11:42:00,
2013-03-09 06:48:00,28.1,21.2,30.24,East,95,1.0,3.0,75,0.00,,,0.00,Wunderground v.1.15,2013-03-09 11:48:00,
2013-03-09 06:54:00,28.9,21.7,30.23,ENE,61,1.0,2.0,74,0.00,,,0.00,Wunderground v.1.15,2013-03-09 11:54:00,
2013-03-09 06:59:00,29.2,21.3,30.23,East,88,1.0,1.0,72,0.00,,,0.00,Wunderground v.1.15,2013-03-09 11:59:00,
2013-03-09 07:05:00,29.5,21.6,30.23,ENE,57,1.0,4.0,72,0.00,,,0.00,Wunderground v.1.15,2013-03-09 12:05:00,
2013-03-09 07:10:00,29.8,21.5,30.23,NE,43,1.0,1.0,71,0.00,,,0.00,Wunderground v.1.15,2013-03-09 12:10:00,
2013-03-09 07:16:00,30.3,21.7,30.24,East,98,1.0,1.0,70,0.00,,,0.00,Wunderground v.1.15,2013-03-09 12:16:00,
2013-03-09 07:22:00,30.6,21.6,30.23,ENE,60,1.0,1.0,69,0.00,,,0.00,Wunderground v.1.15,2013-03-09 12:22:00,
2013-03-09 07:28:00,30.9,21.6,30.23,ENE,64,1.0,2.0,68,0.00,,,0.00,Wunderground v.1.15,2013-03-09 12:28:00,
2013-03-09 07:34:00,31.5,21.4,30.24,NNE,30,1.0,2.0,66,0.00,,,0.00,Wunderground v.1.15,2013-03-09 12:34:00,
2013-03-09 07:40:00,32.1,21.7,30.24,ENE,70,1.0,1.0,65,0.00,,,0.00,Wunderground v.1.15,2013-03-09 12:40:00,
2013-03-09 07:45:00,32.5,21.7,30.24,NE,49,1.0,1.0,64,0.00,,,0.00,Wunderground v.1.15,2013-03-09 12:45:00,
2013-03-09 07:51:00,33.1,21.9,30.24,NE,47,1.0,1.0,63,0.00,,,0.00,Wunderground v.1.15,2013-03-09 12:51:00,
2013-03-09 07:57:00,33.6,22.0,30.24,ENE,61,1.0,2.0,62,0.00,,,0.00,Wunderground v.1.15,2013-03-09 12:57:00,
2013-03-09 08:03:00,34.3,21.8,30.24,SE,146,1.0,4.0,60,0.00,,,0.00,Wunderground v.1.15,2013-03-09 13:03:00,
2013-03-09 08:09:00,35.0,21.7,30.24,East,96,1.0,4.0,58,0.00,,,0.00,Wunderground v.1.15,2013-03-09 13:09:00,
2013-03-09 08:15:00,35.6,22.3,30.25,East,84,1.0,2.0,58,0.00,,,0.00,Wunderground v.1.15,2013-03-09 13:15:00,
2013-03-09 08:21:00,36.2,22.0,30.25,South,171,1.0,2.0,56,0.00,,,0.00,Wunderground v.1.15,2013-03-09 13:21:00,
2013-03-09 08:26:00,37.0,22.3,30.25,East,96,1.0,4.0,55,0.00,,,0.00,Wunderground v.1.15,2013-03-09 13:26:00,
2013-03-09 08:32:00,38.0,22.4,30.25,ESE,104,1.0,4.0,53,0.00,,,0.00,Wunderground v.1.15,2013-03-09 13:32:00,
2013-03-09 08:38:00,38.8,22.2,30.25,East,90,0.0,4.0,51,0.00,,,0.00,Wunderground v.1.15,2013-03-09 13:38:00,
2013-03-09 08:44:00,38.8,21.7,30.25,NNE,17,1.0,2.0,50,0.00,,,0.00,Wunderground v.1.15,2013-03-09 13:44:00,
2013-03-09 08:50:00,38.8,21.7,30.25,NE,50,1.0,1.0,50,0.00,,,0.00,Wunderground v.1.15,2013-03-09 13:50:00,
2013-03-09 08:56:00,38.6,21.5,30.25,NE,34,2.0,5.0,50,0.00,,,0.00,Wunderground v.1.15,2013-03-09 13:56:00,
2013-03-09 09:02:00,39.0,21.4,30.25,SE,146,2.0,4.0,49,0.00,,,0.00,Wunderground v.1.15,2013-03-09 14:02:00,
2013-03-09 09:08:00,39.8,22.2,30.25,ENE,68,1.0,4.0,49,0.00,,,0.00,Wunderground v.1.15,2013-03-09 14:08:00,
2013-03-09 09:14:00,40.6,22.4,30.25,ENE,73,1.0,2.0,48,0.00,,,0.00,Wunderground v.1.15,2013-03-09 14:14:00,
2013-03-09 09:20:00,41.0,22.3,30.25,WSW,251,1.0,1.0,47,0.00,,,0.00,Wunderground v.1.15,2013-03-09 14:20:00,
2013-03-09 09:25:00,41.4,22.7,30.26,WSW,237,2.0,3.0,47,0.00,,,0.00,Wunderground v.1.15,2013-03-09 14:25:00,
2013-03-09 09:31:00,42.3,22.4,30.25,NNE,29,1.0,1.0,45,0.00,,,0.00,Wunderground v.1.15,2013-03-09 14:31:00,
2013-03-09 09:37:00,42.9,21.4,30.25,NNE,16,1.0,2.0,42,0.00,,,0.00,Wunderground v.1.15,2013-03-09 14:37:00,
2013-03-09 09:43:00,43.4,21.8,30.25,NE,51,1.0,2.0,42,0.00,,,0.00,Wunderground v.1.15,2013-03-09 14:43:00,
2013-03-09 09:49:00,43.9,21.7,30.26,NE,35,1.0,3.0,41,0.00,,,0.01,Wunderground v.1.15,2013-03-09 14:49:00,
2013-03-09 09:55:00,44.5,21.0,30.26,NE,35,1.0,3.0,39,0.07,,,0.02,Wunderground v.1.15,2013-03-09 14:55:00,
2013-03-09 10:01:00,44.4,21.0,30.26,North,352,2.0,5.0,39,0.07,,,0.02,Wunderground v.1.15,2013-03-09 15:01:00,
2013-03-09 10:06:00,44.9,20.8,30.26,North,11,2.0,5.0,38,0.05,,,0.02,Wunderground v.1.15,2013-03-09 15:06:00,
2013-03-09 10:12:00,45.3,21.8,30.26,NE,50,1.0,3.0,39,0.00,,,0.02,Wunderground v.1.15,2013-03-09 15:12:00,
2013-03-09 10:18:00,45.8,22.2,30.26,SW,216,1.0,7.0,39,0.00,,,0.02,Wunderground v.1.15,2013-03-09 15:18:00,
2013-03-09 10:24:00,45.2,22.3,30.26,SSW,192,2.0,8.0,40,0.00,,,0.02,Wunderground v.1.15,2013-03-09 15:24:00,
2013-03-09 10:29:00,45.3,21.8,30.26,South,185,2.0,2.0,39,0.00,,,0.03,Wunderground v.1.15,2013-03-09 15:29:00,
2013-03-09 10:35:00,45.8,21.6,30.26,East,93,2.0,5.0,38,0.10,,,0.04,Wunderground v.1.15,2013-03-09 15:35:00,
2013-03-09 10:41:00,45.9,21.7,30.26,ENE,57,2.0,2.0,38,0.09,,,0.05,Wunderground v.1.15,2013-03-09 15:41:00,
2013-03-09 10:47:00,46.3,22.7,30.26,South,182,2.0,4.0,39,0.08,,,0.06,Wunderground v.1.15,2013-03-09 15:47:00,
2013-03-09 10:53:00,46.8,21.2,30.26,SW,236,2.0,2.0,36,0.07,,,0.07,Wunderground v.1.15,2013-03-09 15:53:00,
2013-03-09 10:59:00,46.9,21.3,30.26,NNW,338,2.0,3.0,36,0.07,,,0.07,Wunderground v.1.15,2013-03-09 15:59:00,
2013-03-09 11:05:00,47.1,22.1,30.26,NNE,23,2.0,7.0,37,0.05,,,0.08,Wunderground v.1.15,2013-03-09 16:05:00,
2013-03-09 11:10:00,47.3,21.7,30.26,NE,35,1.0,6.0,36,0.05,,,0.08,Wunderground v.1.15,2013-03-09 16:10:00,
2013-03-09 11:16:00,46.9,20.6,30.26,North,350,2.0,8.0,35,0.05,,,0.08,Wunderground v.1.15,2013-03-09 16:16:00,
2013-03-09 11:22:00,46.9,20.6,30.26,NNE,23,2.0,3.0,35,0.00,,,0.09,Wunderground v.1.15,2013-03-09 16:22:00,
2013-03-09 11:28:00,47.6,21.3,30.26,NW,309,2.0,3.0,35,0.00,,,0.09,Wunderground v.1.15,2013-03-09 16:28:00,
2013-03-09 11:34:00,48.0,19.5,30.26,SSW,193,1.0,3.0,32,0.00,,,0.09,Wunderground v.1.15,2013-03-09 16:34:00,
2013-03-09 11:40:00,47.5,20.5,30.26,NE,46,2.0,2.0,34,0.00,,,0.09,Wunderground v.1.15,2013-03-09 16:40:00,
2013-03-09 11:46:00,47.8,20.8,30.26,NE,35,2.0,5.0,34,0.00,,,0.09,Wunderground v.1.15,2013-03-09 16:46:00,
2013-03-09 11:52:00,48.1,19.6,30.26,NE,36,2.0,5.0,32,0.00,,,0.09,Wunderground v.1.15,2013-03-09 16:52:00,
2013-03-09 11:58:00,48.3,21.2,30.26,NE,40,1.0,5.0,34,0.00,,,0.09,Wunderground v.1.15,2013-03-09 16:58:00,
2013-03-09 12:04:00,48.8,22.3,30.25,WSW,239,1.0,9.0,35,0.00,,,0.09,Wunderground v.1.15,2013-03-09 17:04:00,
2013-03-09 12:09:00,48.9,22.4,30.25,ESE,118,1.0,1.0,35,0.00,,,0.09,Wunderground v.1.15,2013-03-09 17:09:00,
2013-03-09 12:15:00,49.3,21.4,30.25,NE,51,2.0,3.0,33,0.00,,,0.09,Wunderground v.1.15,2013-03-09 17:15:00,
2013-03-09 12:21:00,49.5,22.3,30.25,ENE,73,2.0,3.0,34,0.00,,,0.09,Wunderground v.1.15,2013-03-09 17:21:00,
2013-03-09 12:27:00,50.5,23.1,30.25,SSW,194,1.0,3.0,34,0.00,,,0.09,Wunderground v.1.15,2013-03-09 17:27:00,
2013-03-09 12:32:00,50.9,23.5,30.25,SW,217,1.0,2.0,34,0.00,,,0.09,Wunderground v.1.15,2013-03-09 17:32:00,
2013-03-09 12:38:00,50.7,23.3,30.24,NE,42,2.0,3.0,34,0.00,,,0.09,Wunderground v.1.15,2013-03-09 17:38:00,
2013-03-09 12:44:00,51.0,22.1,30.24,WSW,247,2.0,4.0,32,0.00,,,0.09,Wunderground v.1.15,2013-03-09 17:44:00,
2013-03-09 12:50:00,51.9,22.2,30.24,NNE,21,1.0,1.0,31,0.00,,,0.09,Wunderground v.1.15,2013-03-09 17:50:00,
2013-03-09 12:56:00,52.0,21.5,30.24,SSE,148,1.0,5.0,30,0.00,,,0.09,Wunderground v.1.15,2013-03-09 17:56:00,
2013-03-09 13:02:00,52.1,21.6,30.24,NNE,23,2.0,3.0,30,0.00,,,0.09,Wunderground v.1.15,2013-03-09 18:02:00,
2013-03-09 13:08:00,51.8,21.3,30.24,West,276,2.0,3.0,30,0.00,,,0.09,Wunderground v.1.15,2013-03-09 18:08:00,
2013-03-09 13:14:00,51.9,21.4,30.23,NE,36,2.0,4.0,30,0.00,,,0.09,Wunderground v.1.15,2013-03-09 18:14:00,
2013-03-09 13:20:00,51.7,22.0,30.23,NNE,24,2.0,7.0,31,0.00,,,0.09,Wunderground v.1.15,2013-03-09 18:20:00,
2013-03-09 13:26:00,51.5,21.8,30.22,WNW,290,3.0,7.0,31,0.00,,,0.09,Wunderground v.1.15,2013-03-09 18:26:00,
2013-03-09 13:32:00,51.7,20.4,30.22,NE,40,2.0,7.0,29,0.00,,,0.09,Wunderground v.1.15,2013-03-09 18:32:00,
2013-03-09 13:37:00,52.0,21.5,30.22,NNW,337,2.0,7.0,30,0.00,,,0.09,Wunderground v.1.15,2013-03-09 18:37:00,
2013-03-09 13:43:00,52.0,20.7,30.22,NNE,18,2.0,3.0,29,0.00,,,0.09,Wunderground v.1.15,2013-03-09 18:43:00,
2013-03-09 13:49:00,52.1,21.6,30.22,NE,47,2.0,3.0,30,0.00,,,0.09,Wunderground v.1.15,2013-03-09 18:49:00,
2013-03-09 13:55:00,52.7,21.3,30.22,North,9,2.0,4.0,29,0.00,,,0.09,Wunderground v.1.15,2013-03-09 18:55:00,
2013-03-09 14:01:00,53.9,20.6,30.22,NNE,32,1.0,4.0,27,0.00,,,0.09,Wunderground v.1.15,2013-03-09 19:01:00,
2013-03-09 14:06:00,54.1,21.7,30.21,WSW,237,1.0,4.0,28,0.00,,,0.09,Wunderground v.1.15,2013-03-09 19:06:00,
2013-03-09 14:12:00,54.2,20.9,30.21,NNW,345,1.0,4.0,27,0.00,,,0.09,Wunderground v.1.15,2013-03-09 19:12:00,
2013-03-09 14:18:00,54.7,21.3,30.21,NNE,16,1.0,4.0,27,0.00,,,0.09,Wunderground v.1.15,2013-03-09 19:18:00,
2013-03-09 14:24:00,54.7,22.2,30.21,ESE,107,1.0,3.0,28,0.00,,,0.09,Wunderground v.1.15,2013-03-09 19:24:00,
2013-03-09 14:30:00,54.8,20.5,30.21,South,173,1.0,1.0,26,0.00,,,0.09,Wunderground v.1.15,2013-03-09 19:30:00,
2013-03-09 14:36:00,54.1,21.7,30.21,SSE,156,1.0,3.0,28,0.00,,,0.09,Wunderground v.1.15,2013-03-09 19:36:00,
2013-03-09 14:41:00,54.0,21.6,30.21,NE,54,1.0,2.0,28,0.00,,,0.09,Wunderground v.1.15,2013-03-09 19:41:00,
2013-03-09 14:47:00,54.1,21.7,30.21,ENE,58,1.0,2.0,28,0.00,,,0.09,Wunderground v.1.15,2013-03-09 19:47:00,
2013-03-09 14:53:00,54.5,21.2,30.21,South,182,1.0,1.0,27,0.00,,,0.09,Wunderground v.1.15,2013-03-09 19:53:00,
2013-03-09 14:59:00,55.0,21.6,30.21,North,357,0.0,1.0,27,0.00,,,0.09,Wunderground v.1.15,2013-03-09 19:59:00,
2013-03-09 15:05:00,55.0,19.8,30.22,NE,48,1.0,3.0,25,0.00,,,0.09,Wunderground v.1.15,2013-03-09 20:05:00,
2013-03-09 15:10:00,54.8,23.1,30.22,WSW,242,1.0,1.0,29,0.00,,,0.09,Wunderground v.1.15,2013-03-09 20:10:00,
2013-03-09 15:16:00,54.2,23.4,30.22,WSW,253,1.0,2.0,30,0.00,,,0.09,Wunderground v.1.15,2013-03-09 20:16:00,
2013-03-09 15:21:00,53.4,21.9,30.23,South,179,1.0,5.0,29,0.00,,,0.09,Wunderground v.1.15,2013-03-09 20:21:00,
2013-03-09 15:27:00,52.9,23.8,30.23,SW,223,1.0,5.0,32,0.00,,,0.09,Wunderground v.1.15,2013-03-09 20:27:00,
2013-03-09 15:33:00,51.6,24.1,30.23,West,274,1.0,2.0,34,0.00,,,0.09,Wunderground v.1.15,2013-03-09 20:33:00,
2013-03-09 15:39:00,50.8,24.8,30.23,ENE,58,1.0,2.0,36,0.00,,,0.09,Wunderground v.1.15,2013-03-09 20:39:00,
2013-03-09 15:45:00,50.1,24.8,30.24,NE,52,1.0,2.0,37,0.00,,,0.09,Wunderground v.1.15,2013-03-09 20:45:00,
2013-03-09 15:50:00,49.8,25.2,30.24,SSW,195,1.0,1.0,38,0.00,,,0.09,Wunderground v.1.15,2013-03-09 20:50:00,
2013-03-09 15:56:00,48.9,26.8,30.24,SSE,167,0.0,1.0,42,0.00,,,0.09,Wunderground v.1.15,2013-03-09 20:56:00,
2013-03-09 16:02:00,48.6,24.7,30.24,West,263,0.0,1.0,39,0.00,,,0.09,Wunderground v.1.15,2013-03-09 21:02:00,
2013-03-09 16:08:00,48.6,25.3,30.24,East,96,1.0,4.0,40,0.00,,,0.09,Wunderground v.1.15,2013-03-09 21:08:00,
2013-03-09 16:14:00,48.1,26.1,30.24,SE,134,1.0,2.0,42,0.00,,,0.09,Wunderground v.1.15,2013-03-09 21:14:00,
2013-03-09 16:19:00,48.3,25.7,30.24,East,94,0.0,0.0,41,0.00,,,0.09,Wunderground v.1.15,2013-03-09 21:19:00,
2013-03-09 16:25:00,48.5,24.6,30.24,WSW,254,0.0,2.0,39,0.00,,,0.09,Wunderground v.1.15,2013-03-09 21:25:00,
2013-03-09 16:31:00,48.2,24.4,30.24,SSW,213,1.0,1.0,39,0.00,,,0.09,Wunderground v.1.15,2013-03-09 21:31:00,
2013-03-09 16:37:00,47.9,25.9,30.24,SE,144,1.0,3.0,42,0.00,,,0.09,Wunderground v.1.15,2013-03-09 21:37:00,
2013-03-09 16:43:00,46.8,26.0,30.24,ESE,112,0.0,2.0,44,0.00,,,0.09,Wunderground v.1.15,2013-03-09 21:43:00,
2013-03-09 16:48:00,47.0,23.9,30.24,South,186,1.0,2.0,40,0.00,,,0.09,Wunderground v.1.15,2013-03-09 21:48:00,
2013-03-09 16:54:00,45.4,26.8,30.24,South,170,0.0,1.0,48,0.00,,,0.09,Wunderground v.1.15,2013-03-09 21:54:00,
2013-03-09 17:00:00,44.8,25.8,30.25,WSW,238,0.0,2.0,47,0.00,,,0.09,Wunderground v.1.15,2013-03-09 22:00:00,
2013-03-09 17:06:00,45.7,27.1,30.25,South,173,1.0,2.0,48,0.00,,,0.09,Wunderground v.1.15,2013-03-09 22:06:00,
2013-03-09 17:12:00,45.5,24.3,30.25,South,183,1.0,1.0,43,0.00,,,0.09,Wunderground v.1.15,2013-03-09 22:12:00,
2013-03-09 17:18:00,44.9,23.7,30.25,South,189,0.0,2.0,43,0.00,,,0.09,Wunderground v.1.15,2013-03-09 22:18:00,
2013-03-09 17:24:00,43.7,26.7,30.25,SSW,203,0.0,2.0,51,0.00,,,0.09,Wunderground v.1.15,2013-03-09 22:24:00,
2013-03-09 17:30:00,42.4,26.9,30.25,SW,227,0.0,0.0,54,0.00,,,0.09,Wunderground v.1.15,2013-03-09 22:30:00,
2013-03-09 17:36:00,40.9,27.7,30.25,SW,226,0.0,1.0,59,0.00,,,0.09,Wunderground v.1.15,2013-03-09 22:36:00,
2013-03-09 17:41:00,39.7,28.1,30.25,SW,226,0.0,0.0,63,0.00,,,0.09,Wunderground v.1.15,2013-03-09 22:41:00,
2013-03-09 17:48:00,39.1,27.6,30.26,SSE,168,0.0,0.0,63,0.00,,,0.09,Wunderground v.1.15,2013-03-09 22:48:00,
2013-03-09 17:53:00,38.6,27.1,30.26,South,169,0.0,0.0,63,0.00,,,0.09,Wunderground v.1.15,2013-03-09 22:53:00,
2013-03-09 17:59:00,37.9,27.5,30.26,SW,227,0.0,0.0,66,0.00,,,0.09,Wunderground v.1.15,2013-03-09 22:59:00,
2013-03-09 18:05:00,37.7,27.4,30.26,South,175,0.0,0.0,66,0.00,,,0.09,Wunderground v.1.15,2013-03-09 23:05:00,
2013-03-09 18:10:00,37.7,28.1,30.26,South,177,0.0,0.0,68,0.00,,,0.09,Wunderground v.1.15,2013-03-09 23:10:00,
2013-03-09 18:16:00,37.2,28.3,30.27,SSE,165,0.0,0.0,70,0.00,,,0.09,Wunderground v.1.15,2013-03-09 23:16:00,
2013-03-09 18:22:00,36.9,28.4,30.27,SSE,165,0.0,0.0,71,0.00,,,0.09,Wunderground v.1.15,2013-03-09 23:22:00,
2013-03-09 18:27:00,36.2,28.0,30.27,SSE,165,0.0,0.0,72,0.00,,,0.09,Wunderground v.1.15,2013-03-09 23:27:00,
2013-03-09 18:33:00,36.4,27.5,30.27,South,184,0.0,1.0,70,0.00,,,0.09,Wunderground v.1.15,2013-03-09 23:33:00,
2013-03-09 18:39:00,36.8,27.2,30.27,South,184,0.0,0.0,68,0.00,,,0.09,Wunderground v.1.15,2013-03-09 23:39:00,
2013-03-09 18:45:00,36.1,27.9,30.27,South,184,0.0,0.0,72,0.00,,,0.09,Wunderground v.1.15,2013-03-09 23:45:00,
2013-03-09 18:51:00,35.8,27.7,30.28,SW,217,0.0,0.0,72,0.00,,,0.09,Wunderground v.1.15,2013-03-09 23:51:00,
2013-03-09 18:57:00,36.0,27.5,30.28,SW,223,0.0,0.0,71,0.00,,,0.09,Wunderground v.1.15,2013-03-09 23:57:00,
2013-03-09 19:03:00,35.6,27.1,30.28,SW,223,0.0,0.0,71,0.00,,,0.09,Wunderground v.1.15,2013-03-10 00:03:00,
2013-03-09 19:09:00,35.5,27.7,30.28,SW,222,0.0,0.0,73,0.00,,,0.09,Wunderground v.1.15,2013-03-10 00:09:00,
2013-03-09 19:14:00,35.6,27.1,30.28,SW,222,0.0,0.0,71,0.00,,,0.09,Wunderground v.1.15,2013-03-10 00:14:00,
2013-03-09 19:20:00,35.6,27.5,30.28,SSW,198,0.0,0.0,72,0.00,,,0.09,Wunderground v.1.15,2013-03-10 00:20:00,
2013-03-09 19:26:00,35.3,27.5,30.28,SW,226,0.0,0.0,73,0.00,,,0.09,Wunderground v.1.15,2013-03-10 00:26:00,
2013-03-09 19:32:00,35.3,26.1,30.28,SSW,195,0.0,0.0,69,0.00,,,0.09,Wunderground v.1.15,2013-03-10 00:32:00,
2013-03-09 19:38:00,35.2,27.4,30.28,SSW,203,0.0,1.0,73,0.00,,,0.09,Wunderground v.1.15,2013-03-10 00:38:00,
2013-03-09 19:44:00,35.2,27.1,30.29,SSE,159,0.0,0.0,72,0.00,,,0.09,Wunderground v.1.15,2013-03-10 00:44:00,
2013-03-09 19:50:00,35.0,27.5,30.28,SSE,158,0.0,0.0,74,0.00,,,0.09,Wunderground v.1.15,2013-03-10 00:50:00,
2013-03-09 19:55:00,34.5,27.4,30.28,SSE,158,0.0,0.0,75,0.00,,,0.09,Wunderground v.1.15,2013-03-10 00:55:00,
2013-03-09 20:01:00,34.4,27.6,30.28,SSE,158,0.0,0.0,76,0.00,,,0.09,Wunderground v.1.15,2013-03-10 01:01:00,
2013-03-09 20:07:00,34.3,27.5,30.28,SSE,159,0.0,0.0,76,0.00,,,0.09,Wunderground v.1.15,2013-03-10 01:07:00,
2013-03-09 20:13:00,34.0,27.2,30.28,SSE,159,0.0,0.0,76,0.00,,,0.09,Wunderground v.1.15,2013-03-10 01:13:00,
2013-03-09 20:19:00,33.7,26.6,30.29,SSE,158,0.0,0.0,75,0.00,,,0.09,Wunderground v.1.15,2013-03-10 01:19:00,
2013-03-09 20:25:00,33.6,26.5,30.29,SSE,160,0.0,0.0,75,0.00,,,0.09,Wunderground v.1.15,2013-03-10 01:25:00,
2013-03-09 20:31:00,33.6,26.2,30.29,South,187,0.0,0.0,74,0.00,,,0.09,Wunderground v.1.15,2013-03-10 01:31:00,
2013-03-09 20:37:00,33.4,27.0,30.29,South,187,0.0,0.0,77,0.00,,,0.09,Wunderground v.1.15,2013-03-10 01:37:00,
2013-03-09 20:43:00,33.3,26.5,30.29,South,187,0.0,0.0,76,0.00,,,0.09,Wunderground v.1.15,2013-03-10 01:43:00,
2013-03-09 20:49:00,33.2,26.5,30.29,South,187,0.0,0.0,76,0.00,,,0.09,Wunderground v.1.15,2013-03-10 01:49:00,
2013-03-09 20:54:00,32.8,26.7,30.29,South,187,0.0,0.0,78,0.00,,,0.09,Wunderground v.1.15,2013-03-10 01:54:00,
2013-03-09 21:00:00,32.7,26.9,30.29,South,187,0.0,0.0,79,0.00,,,0.09,Wunderground v.1.15,2013-03-10 02:00:00,
2013-03-09 21:06:00,32.7,26.3,30.29,South,187,0.0,0.0,77,0.00,,,0.09,Wunderground v.1.15,2013-03-10 02:06:00,
2013-03-09 21:12:00,32.7,26.3,30.29,South,187,0.0,0.0,77,0.00,,,0.09,Wunderground v.1.15,2013-03-10 02:12:00,
2013-03-09 21:18:00,32.4,26.6,30.29,South,187,0.0,0.0,79,0.00,,,0.09,Wunderground v.1.15,2013-03-10 02:18:00,
2013-03-09 21:24:00,32.3,26.5,30.29,South,187,0.0,0.0,79,0.00,,,0.09,Wunderground v.1.15,2013-03-10 02:24:00,
2013-03-09 21:30:00,32.2,26.7,30.29,South,187,0.0,0.0,80,0.00,,,0.09,Wunderground v.1.15,2013-03-10 02:30:00,
2013-03-09 21:36:00,32.2,26.7,30.28,South,187,0.0,0.0,80,0.00,,,0.09,Wunderground v.1.15,2013-03-10 02:36:00,
2013-03-09 21:41:00,31.8,26.3,30.29,South,187,0.0,0.0,80,0.00,,,0.09,Wunderground v.1.15,2013-03-10 02:41:00,
2013-03-09 21:47:00,32.0,26.2,30.29,South,187,0.0,0.0,79,0.00,,,0.09,Wunderground v.1.15,2013-03-10 02:47:00,
2013-03-09 21:53:00,31.7,25.6,30.29,South,188,0.0,0.0,78,0.00,,,0.09,Wunderground v.1.15,2013-03-10 02:53:00,
2013-03-09 21:59:00,31.8,25.4,30.30,South,187,0.0,0.0,77,0.00,,,0.09,Wunderground v.1.15,2013-03-10 02:59:00,
2013-03-09 22:05:00,32.4,25.4,30.31,South,169,0.0,1.0,75,0.00,,,0.09,Wunderground v.1.15,2013-03-10 03:05:00,
2013-03-09 22:11:00,32.2,25.8,30.31,SSE,151,1.0,1.0,77,0.00,,,0.09,Wunderground v.1.15,2013-03-10 03:11:00,
2013-03-09 22:16:00,32.0,25.6,30.31,South,182,1.0,1.0,77,0.00,,,0.09,Wunderground v.1.15,2013-03-10 03:16:00,
2013-03-09 22:22:00,31.7,24.7,30.31,SSE,156,0.0,1.0,75,0.00,,,0.09,Wunderground v.1.15,2013-03-10 03:22:00,
2013-03-09 22:28:00,31.3,25.8,30.31,SSE,158,0.0,1.0,80,0.00,,,0.09,Wunderground v.1.15,2013-03-10 03:28:00,
2013-03-09 22:34:00,31.0,24.9,30.31,SSE,158,0.0,0.0,78,0.00,,,0.09,Wunderground v.1.15,2013-03-10 03:34:00,
2013-03-09 22:40:00,30.8,25.7,30.31,SSE,158,0.0,0.0,81,0.00,,,0.09,Wunderground v.1.15,2013-03-10 03:40:00,
2013-03-09 22:46:00,30.3,24.9,30.32,SSE,158,0.0,0.0,80,0.00,,,0.09,Wunderground v.1.15,2013-03-10 03:46:00,
2013-03-09 22:51:00,30.0,24.9,30.32,SSE,158,0.0,0.0,81,0.00,,,0.09,Wunderground v.1.15,2013-03-10 03:51:00,
2013-03-09 22:58:00,29.9,25.1,30.32,SSE,158,0.0,0.0,82,0.00,,,0.09,Wunderground v.1.15,2013-03-10 03:58:00,
2013-03-09 23:03:00,29.8,24.4,30.32,SSE,158,0.0,0.0,80,0.00,,,0.09,Wunderground v.1.15,2013-03-10 04:03:00,
2013-03-09 23:09:00,29.5,25.0,30.32,SSE,158,0.0,0.0,83,0.00,,,0.09,Wunderground v.1.15,2013-03-10 04:09:00,
2013-03-09 23:15:00,29.4,24.6,30.32,SSE,158,0.0,0.0,82,0.00,,,0.09,Wunderground v.1.15,2013-03-10 04:15:00,
2013-03-09 23:21:00,29.4,24.6,30.32,SSE,158,0.0,0.0,82,0.00,,,0.09,Wunderground v.1.15,2013-03-10 04:21:00,
2013-03-09 23:27:00,29.0,24.5,30.32,SSE,158,0.0,0.0,83,0.00,,,0.09,Wunderground v.1.15,2013-03-10 04:27:00,
2013-03-09 23:32:00,29.0,24.8,30.33,SSE,158,0.0,0.0,84,0.00,,,0.09,Wunderground v.1.15,2013-03-10 04:32:00,
2013-03-09 23:38:00,29.0,23.6,30.33,SSE,158,0.0,0.0,80,0.00,,,0.09,Wunderground v.1.15,2013-03-10 04:38:00,
2013-03-09 23:44:00,28.9,24.1,30.32,SSE,158,0.0,0.0,82,0.00,,,0.09,Wunderground v.1.15,2013-03-10 04:44:00,
2013-03-09 23:49:00,28.5,24.3,30.32,SSE,158,0.0,0.0,84,0.00,,,0.09,Wunderground v.1.15,2013-03-10 04:49:00,
2013-03-09 23:55:00,28.3,23.8,30.33,SSE,158,0.0,0.0,83,0.00,,,0.09,Wunderground v.1.15,2013-03-10 04:55:00,